sensor_id;sensor_type;location;lat;lon;timestamp;P1;durP1;ratioP1;P2;durP2;ratioP2
44987;SDS011;35735;52.226;21.254;2023-03-08T00:02:20;3.28;;;2.40;;
44987;SDS011;35735;52.226;21.254;2023-03-08T00:07:21;4.22;;;2.55;;
44987;SDS011;35735;52.226;21.254;2023-03-08T00:12:23;2.35;;;2.00;;
44987;SDS011;35735;52.226;21.254;2023-03-08T00:17:24;3.30;;;2.03;;
44987;SDS011;35735;52.226;21.254;2023-03-08T00:22:24;4.22;;;1.75;;
44987;SDS011;35735;52.226;21.254;2023-03-08T00:27:26;2.28;;;1.50;;
44987;SDS011;35735;52.226;21.254;2023-03-08T00:32:26;2.25;;;1.50;;
44987;SDS011;35735;52.226;21.254;2023-03-08T00:37:27;2.05;;;1.25;;
44987;SDS011;35735;52.226;21.254;2023-03-08T00:42:28;1.95;;;1.30;;
44987;SDS011;35735;52.226;21.254;2023-03-08T00:47:28;2.00;;;1.40;;
44987;SDS011;35735;52.226;21.254;2023-03-08T00:52:29;2.83;;;1.50;;
44987;SDS011;35735;52.226;21.254;2023-03-08T00:57:29;4.12;;;1.50;;
44987;SDS011;35735;52.226;21.254;2023-03-08T01:02:30;2.53;;;1.85;;
44987;SDS011;35735;52.226;21.254;2023-03-08T01:07:30;2.97;;;2.12;;
44987;SDS011;35735;52.226;21.254;2023-03-08T01:12:32;3.55;;;1.90;;
44987;SDS011;35735;52.226;21.254;2023-03-08T01:17:34;4.15;;;2.30;;
44987;SDS011;35735;52.226;21.254;2023-03-08T01:22:34;2.53;;;2.00;;
44987;SDS011;35735;52.226;21.254;2023-03-08T01:27:35;3.25;;;2.40;;
44987;SDS011;35735;52.226;21.254;2023-03-08T01:32:35;3.92;;;2.10;;
44987;SDS011;35735;52.226;21.254;2023-03-08T01:37:36;3.50;;;2.22;;
44987;SDS011;35735;52.226;21.254;2023-03-08T01:42:37;4.03;;;2.42;;
44987;SDS011;35735;52.226;21.254;2023-03-08T01:47:38;2.92;;;1.95;;
44987;SDS011;35735;52.226;21.254;2023-03-08T01:52:40;4.00;;;2.03;;
44987;SDS011;35735;52.226;21.254;2023-03-08T01:57:50;2.20;;;1.98;;
44987;SDS011;35735;52.226;21.254;2023-03-08T02:07:59;4.65;;;2.40;;
44987;SDS011;35735;52.226;21.254;2023-03-08T02:13:00;5.32;;;2.10;;
44987;SDS011;35735;52.226;21.254;2023-03-08T02:18:03;4.62;;;2.67;;
44987;SDS011;35735;52.226;21.254;2023-03-08T02:23:11;4.28;;;2.95;;
44987;SDS011;35735;52.226;21.254;2023-03-08T02:28:15;4.47;;;2.60;;
44987;SDS011;35735;52.226;21.254;2023-03-08T02:33:16;5.10;;;2.35;;
44987;SDS011;35735;52.226;21.254;2023-03-08T02:38:18;4.53;;;2.80;;
44987;SDS011;35735;52.226;21.254;2023-03-08T02:43:20;3.87;;;2.58;;
44987;SDS011;35735;52.226;21.254;2023-03-08T02:48:21;3.47;;;1.87;;
44987;SDS011;35735;52.226;21.254;2023-03-08T02:53:21;2.25;;;1.77;;
44987;SDS011;35735;52.226;21.254;2023-03-08T02:58:22;3.87;;;2.10;;
44987;SDS011;35735;52.226;21.254;2023-03-08T03:03:23;3.80;;;2.33;;
44987;SDS011;35735;52.226;21.254;2023-03-08T03:08:23;5.43;;;2.00;;
44987;SDS011;35735;52.226;21.254;2023-03-08T03:13:24;3.83;;;2.10;;
44987;SDS011;35735;52.226;21.254;2023-03-08T03:18:24;3.67;;;1.60;;
44987;SDS011;35735;52.226;21.254;2023-03-08T03:23:28;3.05;;;1.58;;
44987;SDS011;35735;52.226;21.254;2023-03-08T03:28:28;2.85;;;1.65;;
44987;SDS011;35735;52.226;21.254;2023-03-08T03:33:29;4.35;;;1.50;;
44987;SDS011;35735;52.226;21.254;2023-03-08T03:38:30;3.55;;;1.50;;
44987;SDS011;35735;52.226;21.254;2023-03-08T03:43:30;2.90;;;1.70;;
44987;SDS011;35735;52.226;21.254;2023-03-08T03:48:32;2.55;;;1.60;;
44987;SDS011;35735;52.226;21.254;2023-03-08T03:53:34;3.47;;;1.70;;
44987;SDS011;35735;52.226;21.254;2023-03-08T03:58:35;4.57;;;1.90;;
44987;SDS011;35735;52.226;21.254;2023-03-08T04:03:35;3.03;;;2.20;;
44987;SDS011;35735;52.226;21.254;2023-03-08T04:08:36;5.25;;;2.60;;
44987;SDS011;35735;52.226;21.254;2023-03-08T04:13:37;3.92;;;2.58;;
44987;SDS011;35735;52.226;21.254;2023-03-08T04:18:38;4.85;;;2.87;;
44987;SDS011;35735;52.226;21.254;2023-03-08T04:23:40;5.70;;;3.42;;
44987;SDS011;35735;52.226;21.254;2023-03-08T04:28:40;8.32;;;4.50;;
44987;SDS011;35735;52.226;21.254;2023-03-08T04:33:42;5.85;;;4.22;;
44987;SDS011;35735;52.226;21.254;2023-03-08T04:38:43;8.45;;;4.82;;
44987;SDS011;35735;52.226;21.254;2023-03-08T04:48:51;8.68;;;6.55;;
44987;SDS011;35735;52.226;21.254;2023-03-08T04:53:52;9.88;;;7.37;;
44987;SDS011;35735;52.226;21.254;2023-03-08T04:58:52;9.38;;;7.03;;
44987;SDS011;35735;52.226;21.254;2023-03-08T05:03:53;10.25;;;6.78;;
44987;SDS011;35735;52.226;21.254;2023-03-08T05:08:54;9.00;;;6.57;;
44987;SDS011;35735;52.226;21.254;2023-03-08T05:13:56;8.68;;;6.68;;
44987;SDS011;35735;52.226;21.254;2023-03-08T05:18:58;8.63;;;6.45;;
44987;SDS011;35735;52.226;21.254;2023-03-08T05:23:58;8.88;;;6.78;;
44987;SDS011;35735;52.226;21.254;2023-03-08T05:29:00;9.70;;;7.70;;
44987;SDS011;35735;52.226;21.254;2023-03-08T05:34:02;8.00;;;6.80;;
44987;SDS011;35735;52.226;21.254;2023-03-08T05:39:04;10.60;;;7.65;;
44987;SDS011;35735;52.226;21.254;2023-03-08T05:44:04;9.88;;;7.22;;
44987;SDS011;35735;52.226;21.254;2023-03-08T05:49:05;10.48;;;7.30;;
44987;SDS011;35735;52.226;21.254;2023-03-08T05:54:06;9.77;;;7.30;;
44987;SDS011;35735;52.226;21.254;2023-03-08T05:59:07;10.35;;;6.80;;
44987;SDS011;35735;52.226;21.254;2023-03-08T06:04:07;10.07;;;6.60;;
44987;SDS011;35735;52.226;21.254;2023-03-08T06:09:08;9.80;;;7.12;;
44987;SDS011;35735;52.226;21.254;2023-03-08T06:14:09;10.10;;;6.95;;
44987;SDS011;35735;52.226;21.254;2023-03-08T06:19:09;10.05;;;6.70;;
44987;SDS011;35735;52.226;21.254;2023-03-08T06:24:10;10.80;;;7.93;;
44987;SDS011;35735;52.226;21.254;2023-03-08T06:29:10;9.65;;;6.65;;
44987;SDS011;35735;52.226;21.254;2023-03-08T06:34:11;9.93;;;6.62;;
44987;SDS011;35735;52.226;21.254;2023-03-08T06:39:12;9.57;;;6.55;;
44987;SDS011;35735;52.226;21.254;2023-03-08T06:44:12;12.20;;;6.30;;
44987;SDS011;35735;52.226;21.254;2023-03-08T06:49:13;8.70;;;6.43;;
44987;SDS011;35735;52.226;21.254;2023-03-08T06:54:14;8.02;;;5.93;;
44987;SDS011;35735;52.226;21.254;2023-03-08T06:59:14;8.45;;;6.05;;
44987;SDS011;35735;52.226;21.254;2023-03-08T07:04:15;7.62;;;5.60;;
44987;SDS011;35735;52.226;21.254;2023-03-08T07:09:15;7.57;;;5.07;;
44987;SDS011;35735;52.226;21.254;2023-03-08T07:14:16;7.00;;;4.90;;
44987;SDS011;35735;52.226;21.254;2023-03-08T07:19:16;7.57;;;5.05;;
44987;SDS011;35735;52.226;21.254;2023-03-08T07:24:17;7.90;;;5.62;;
44987;SDS011;35735;52.226;21.254;2023-03-08T07:29:20;6.35;;;5.25;;
44987;SDS011;35735;52.226;21.254;2023-03-08T07:34:20;8.13;;;4.68;;
44987;SDS011;35735;52.226;21.254;2023-03-08T07:39:21;7.40;;;4.72;;
44987;SDS011;35735;52.226;21.254;2023-03-08T07:44:21;6.82;;;4.68;;
44987;SDS011;35735;52.226;21.254;2023-03-08T07:49:22;6.30;;;4.60;;
44987;SDS011;35735;52.226;21.254;2023-03-08T07:54:22;6.32;;;4.65;;
44987;SDS011;35735;52.226;21.254;2023-03-08T07:59:23;8.07;;;4.37;;
44987;SDS011;35735;52.226;21.254;2023-03-08T08:04:24;8.57;;;5.45;;
44987;SDS011;35735;52.226;21.254;2023-03-08T08:09:24;7.72;;;4.47;;
44987;SDS011;35735;52.226;21.254;2023-03-08T08:14:25;15.38;;;5.20;;
44987;SDS011;35735;52.226;21.254;2023-03-08T08:19:25;8.38;;;4.85;;
44987;SDS011;35735;52.226;21.254;2023-03-08T08:24:26;13.05;;;5.10;;
44987;SDS011;35735;52.226;21.254;2023-03-08T08:29:27;6.78;;;4.50;;
44987;SDS011;35735;52.226;21.254;2023-03-08T08:34:27;7.43;;;3.92;;
44987;SDS011;35735;52.226;21.254;2023-03-08T08:39:28;5.93;;;4.18;;
44987;SDS011;35735;52.226;21.254;2023-03-08T08:44:29;8.63;;;4.60;;
44987;SDS011;35735;52.226;21.254;2023-03-08T08:49:29;5.87;;;4.10;;
44987;SDS011;35735;52.226;21.254;2023-03-08T08:54:30;5.93;;;3.97;;
44987;SDS011;35735;52.226;21.254;2023-03-08T08:59:31;7.28;;;4.28;;
44987;SDS011;35735;52.226;21.254;2023-03-08T09:04:31;6.55;;;4.37;;
44987;SDS011;35735;52.226;21.254;2023-03-08T09:09:32;6.15;;;4.07;;
44987;SDS011;35735;52.226;21.254;2023-03-08T09:14:33;8.13;;;3.97;;
44987;SDS011;35735;52.226;21.254;2023-03-08T09:19:34;13.00;;;4.40;;
44987;SDS011;35735;52.226;21.254;2023-03-08T09:24:34;7.50;;;4.07;;
44987;SDS011;35735;52.226;21.254;2023-03-08T09:29:35;6.07;;;3.40;;
44987;SDS011;35735;52.226;21.254;2023-03-08T09:34:36;7.05;;;3.35;;
44987;SDS011;35735;52.226;21.254;2023-03-08T09:39:37;8.85;;;3.80;;
44987;SDS011;35735;52.226;21.254;2023-03-08T09:49:55;7.75;;;3.55;;
44987;SDS011;35735;52.226;21.254;2023-03-08T09:55:11;4.15;;;3.08;;
44987;SDS011;35735;52.226;21.254;2023-03-08T10:00:20;6.30;;;3.30;;
44987;SDS011;35735;52.226;21.254;2023-03-08T10:10:59;5.35;;;3.25;;
44987;SDS011;35735;52.226;21.254;2023-03-08T10:16:05;6.47;;;3.65;;
44987;SDS011;35735;52.226;21.254;2023-03-08T10:21:20;6.55;;;4.03;;
44987;SDS011;35735;52.226;21.254;2023-03-08T10:26:23;5.05;;;3.50;;
44987;SDS011;35735;52.226;21.254;2023-03-08T10:31:27;4.82;;;3.10;;
44987;SDS011;35735;52.226;21.254;2023-03-08T10:36:30;6.80;;;3.50;;
44987;SDS011;35735;52.226;21.254;2023-03-08T10:41:35;7.55;;;3.17;;
44987;SDS011;35735;52.226;21.254;2023-03-08T10:46:46;6.78;;;3.17;;
44987;SDS011;35735;52.226;21.254;2023-03-08T10:51:56;6.40;;;3.67;;
44987;SDS011;35735;52.226;21.254;2023-03-08T10:56:59;7.20;;;3.20;;
44987;SDS011;35735;52.226;21.254;2023-03-08T11:02:14;5.55;;;3.17;;
44987;SDS011;35735;52.226;21.254;2023-03-08T11:07:20;6.53;;;3.40;;
44987;SDS011;35735;52.226;21.254;2023-03-08T11:12:24;4.53;;;3.25;;
44987;SDS011;35735;52.226;21.254;2023-03-08T11:28:18;5.10;;;3.28;;
44987;SDS011;35735;52.226;21.254;2023-03-08T11:33:48;5.78;;;3.65;;
44987;SDS011;35735;52.226;21.254;2023-03-08T11:39:16;6.18;;;2.97;;
44987;SDS011;35735;52.226;21.254;2023-03-08T11:44:31;5.30;;;3.20;;
44987;SDS011;35735;52.226;21.254;2023-03-08T11:49:50;5.22;;;3.20;;
44987;SDS011;35735;52.226;21.254;2023-03-08T12:00:29;6.30;;;2.97;;
44987;SDS011;35735;52.226;21.254;2023-03-08T12:05:35;5.53;;;3.20;;
44987;SDS011;35735;52.226;21.254;2023-03-08T12:10:47;6.60;;;3.50;;
44987;SDS011;35735;52.226;21.254;2023-03-08T12:15:59;8.20;;;3.72;;
44987;SDS011;35735;52.226;21.254;2023-03-08T12:21:27;6.28;;;3.60;;
44987;SDS011;35735;52.226;21.254;2023-03-08T12:26:48;8.30;;;2.92;;
44987;SDS011;35735;52.226;21.254;2023-03-08T12:32:02;4.18;;;3.20;;
44987;SDS011;35735;52.226;21.254;2023-03-08T12:37:17;8.48;;;2.90;;
44987;SDS011;35735;52.226;21.254;2023-03-08T12:42:28;6.15;;;3.17;;
44987;SDS011;35735;52.226;21.254;2023-03-08T12:47:33;7.45;;;3.45;;
44987;SDS011;35735;52.226;21.254;2023-03-08T12:52:34;4.85;;;3.10;;
44987;SDS011;35735;52.226;21.254;2023-03-08T12:57:43;5.53;;;3.30;;
44987;SDS011;35735;52.226;21.254;2023-03-08T13:02:57;8.63;;;3.15;;
44987;SDS011;35735;52.226;21.254;2023-03-08T13:13:31;4.78;;;2.80;;
44987;SDS011;35735;52.226;21.254;2023-03-08T13:18:49;3.80;;;2.40;;
44987;SDS011;35735;52.226;21.254;2023-03-08T13:24:19;7.93;;;2.78;;
44987;SDS011;35735;52.226;21.254;2023-03-08T13:29:31;4.15;;;2.97;;
44987;SDS011;35735;52.226;21.254;2023-03-08T13:34:33;4.50;;;3.20;;
44987;SDS011;35735;52.226;21.254;2023-03-08T13:39:34;7.05;;;3.30;;
44987;SDS011;35735;52.226;21.254;2023-03-08T13:44:37;6.47;;;3.20;;
44987;SDS011;35735;52.226;21.254;2023-03-08T13:49:40;7.00;;;3.72;;
44987;SDS011;35735;52.226;21.254;2023-03-08T13:54:44;6.95;;;3.80;;
44987;SDS011;35735;52.226;21.254;2023-03-08T13:59:51;11.38;;;4.07;;
44987;SDS011;35735;52.226;21.254;2023-03-08T14:04:56;8.52;;;3.78;;
44987;SDS011;35735;52.226;21.254;2023-03-08T14:09:57;5.20;;;3.45;;
44987;SDS011;35735;52.226;21.254;2023-03-08T14:14:59;8.30;;;3.83;;
44987;SDS011;35735;52.226;21.254;2023-03-08T14:20:03;4.70;;;3.80;;
44987;SDS011;35735;52.226;21.254;2023-03-08T14:25:37;11.88;;;5.00;;
44987;SDS011;35735;52.226;21.254;2023-03-08T14:30:45;8.40;;;4.30;;
44987;SDS011;35735;52.226;21.254;2023-03-08T14:35:53;8.40;;;4.25;;
44987;SDS011;35735;52.226;21.254;2023-03-08T14:40:55;7.32;;;4.20;;
44987;SDS011;35735;52.226;21.254;2023-03-08T14:46:03;5.65;;;3.72;;
44987;SDS011;35735;52.226;21.254;2023-03-08T14:51:23;5.57;;;3.22;;
44987;SDS011;35735;52.226;21.254;2023-03-08T14:56:35;7.45;;;3.92;;
44987;SDS011;35735;52.226;21.254;2023-03-08T15:01:36;6.70;;;3.62;;
44987;SDS011;35735;52.226;21.254;2023-03-08T15:06:38;7.60;;;4.15;;
44987;SDS011;35735;52.226;21.254;2023-03-08T15:11:39;8.77;;;5.00;;
44987;SDS011;35735;52.226;21.254;2023-03-08T15:16:40;10.20;;;4.85;;
44987;SDS011;35735;52.226;21.254;2023-03-08T15:21:40;9.77;;;4.95;;
44987;SDS011;35735;52.226;21.254;2023-03-08T15:26:42;8.05;;;4.60;;
44987;SDS011;35735;52.226;21.254;2023-03-08T15:31:43;14.90;;;6.28;;
44987;SDS011;35735;52.226;21.254;2023-03-08T15:36:43;8.48;;;5.15;;
44987;SDS011;35735;52.226;21.254;2023-03-08T15:41:44;9.50;;;4.50;;
44987;SDS011;35735;52.226;21.254;2023-03-08T15:46:45;10.77;;;5.65;;
44987;SDS011;35735;52.226;21.254;2023-03-08T15:51:46;12.68;;;5.90;;
44987;SDS011;35735;52.226;21.254;2023-03-08T15:56:47;13.13;;;5.80;;
44987;SDS011;35735;52.226;21.254;2023-03-08T16:01:47;11.02;;;5.95;;
44987;SDS011;35735;52.226;21.254;2023-03-08T16:06:48;8.95;;;5.12;;
44987;SDS011;35735;52.226;21.254;2023-03-08T16:11:48;9.85;;;5.95;;
44987;SDS011;35735;52.226;21.254;2023-03-08T16:16:49;7.25;;;5.20;;
44987;SDS011;35735;52.226;21.254;2023-03-08T16:21:50;14.57;;;7.60;;
44987;SDS011;35735;52.226;21.254;2023-03-08T16:26:50;13.38;;;7.90;;
44987;SDS011;35735;52.226;21.254;2023-03-08T16:31:51;14.32;;;5.85;;
44987;SDS011;35735;52.226;21.254;2023-03-08T16:36:52;10.55;;;5.50;;
44987;SDS011;35735;52.226;21.254;2023-03-08T16:41:53;11.45;;;6.00;;
44987;SDS011;35735;52.226;21.254;2023-03-08T16:46:54;12.32;;;7.50;;
44987;SDS011;35735;52.226;21.254;2023-03-08T16:51:55;13.52;;;7.93;;
44987;SDS011;35735;52.226;21.254;2023-03-08T16:56:56;12.73;;;7.15;;
44987;SDS011;35735;52.226;21.254;2023-03-08T17:01:56;14.20;;;8.10;;
44987;SDS011;35735;52.226;21.254;2023-03-08T17:06:57;13.30;;;8.52;;
44987;SDS011;35735;52.226;21.254;2023-03-08T17:11:57;14.32;;;8.10;;
44987;SDS011;35735;52.226;21.254;2023-03-08T17:16:58;16.12;;;7.97;;
44987;SDS011;35735;52.226;21.254;2023-03-08T17:21:59;11.20;;;6.25;;
44987;SDS011;35735;52.226;21.254;2023-03-08T17:26:59;8.38;;;5.45;;
44987;SDS011;35735;52.226;21.254;2023-03-08T17:32:00;8.60;;;5.10;;
44987;SDS011;35735;52.226;21.254;2023-03-08T17:37:00;11.88;;;6.18;;
44987;SDS011;35735;52.226;21.254;2023-03-08T17:42:01;9.43;;;5.70;;
44987;SDS011;35735;52.226;21.254;2023-03-08T17:47:02;10.68;;;6.47;;
44987;SDS011;35735;52.226;21.254;2023-03-08T17:52:03;14.38;;;8.13;;
44987;SDS011;35735;52.226;21.254;2023-03-08T17:57:03;13.38;;;6.93;;
44987;SDS011;35735;52.226;21.254;2023-03-08T18:02:04;12.70;;;7.25;;
44987;SDS011;35735;52.226;21.254;2023-03-08T18:07:04;10.82;;;7.53;;
44987;SDS011;35735;52.226;21.254;2023-03-08T18:12:05;11.05;;;7.15;;
44987;SDS011;35735;52.226;21.254;2023-03-08T18:17:07;14.40;;;7.93;;
44987;SDS011;35735;52.226;21.254;2023-03-08T18:22:09;12.57;;;8.10;;
44987;SDS011;35735;52.226;21.254;2023-03-08T18:27:10;11.52;;;7.82;;
44987;SDS011;35735;52.226;21.254;2023-03-08T18:32:11;13.38;;;8.05;;
44987;SDS011;35735;52.226;21.254;2023-03-08T18:37:11;14.57;;;8.95;;
44987;SDS011;35735;52.226;21.254;2023-03-08T18:42:12;15.25;;;8.60;;
44987;SDS011;35735;52.226;21.254;2023-03-08T18:47:12;13.75;;;9.20;;
44987;SDS011;35735;52.226;21.254;2023-03-08T18:52:13;15.20;;;9.23;;
44987;SDS011;35735;52.226;21.254;2023-03-08T18:57:13;13.32;;;8.82;;
44987;SDS011;35735;52.226;21.254;2023-03-08T19:02:14;17.20;;;10.13;;
44987;SDS011;35735;52.226;21.254;2023-03-08T19:07:15;16.17;;;10.48;;
44987;SDS011;35735;52.226;21.254;2023-03-08T19:12:16;16.75;;;11.15;;
44987;SDS011;35735;52.226;21.254;2023-03-08T19:17:16;15.80;;;10.65;;
44987;SDS011;35735;52.226;21.254;2023-03-08T19:22:17;13.60;;;10.75;;
44987;SDS011;35735;52.226;21.254;2023-03-08T19:27:17;17.65;;;10.90;;
44987;SDS011;35735;52.226;21.254;2023-03-08T19:32:18;19.15;;;12.07;;
44987;SDS011;35735;52.226;21.254;2023-03-08T19:37:18;18.05;;;11.90;;
44987;SDS011;35735;52.226;21.254;2023-03-08T19:42:19;19.45;;;11.20;;
44987;SDS011;35735;52.226;21.254;2023-03-08T19:47:19;15.45;;;10.60;;
44987;SDS011;35735;52.226;21.254;2023-03-08T19:52:20;19.83;;;12.02;;
44987;SDS011;35735;52.226;21.254;2023-03-08T19:57:21;20.70;;;12.98;;
44987;SDS011;35735;52.226;21.254;2023-03-08T20:02:21;21.42;;;13.90;;
44987;SDS011;35735;52.226;21.254;2023-03-08T20:07:22;53.78;;;23.45;;
44987;SDS011;35735;52.226;21.254;2023-03-08T20:12:23;79.85;;;28.10;;
44987;SDS011;35735;52.226;21.254;2023-03-08T20:17:23;117.78;;;37.05;;
44987;SDS011;35735;52.226;21.254;2023-03-08T20:22:24;149.90;;;42.95;;
44987;SDS011;35735;52.226;21.254;2023-03-08T20:27:24;119.37;;;38.78;;
44987;SDS011;35735;52.226;21.254;2023-03-08T20:32:25;91.20;;;32.50;;
44987;SDS011;35735;52.226;21.254;2023-03-08T20:37:25;36.70;;;20.70;;
44987;SDS011;35735;52.226;21.254;2023-03-08T20:42:26;30.35;;;18.12;;
44987;SDS011;35735;52.226;21.254;2023-03-08T20:47:26;31.55;;;19.40;;
44987;SDS011;35735;52.226;21.254;2023-03-08T20:52:27;39.35;;;20.90;;
44987;SDS011;35735;52.226;21.254;2023-03-08T20:57:28;30.73;;;19.23;;
44987;SDS011;35735;52.226;21.254;2023-03-08T21:02:28;24.37;;;15.30;;
44987;SDS011;35735;52.226;21.254;2023-03-08T21:07:31;22.15;;;13.88;;
44987;SDS011;35735;52.226;21.254;2023-03-08T21:12:32;21.20;;;14.02;;
44987;SDS011;35735;52.226;21.254;2023-03-08T21:17:32;22.20;;;15.05;;
44987;SDS011;35735;52.226;21.254;2023-03-08T21:22:33;26.10;;;17.10;;
44987;SDS011;35735;52.226;21.254;2023-03-08T21:27:33;23.48;;;16.55;;
44987;SDS011;35735;52.226;21.254;2023-03-08T21:32:35;23.33;;;15.52;;
44987;SDS011;35735;52.226;21.254;2023-03-08T21:37:36;21.27;;;14.15;;
44987;SDS011;35735;52.226;21.254;2023-03-08T21:42:36;22.67;;;14.48;;
44987;SDS011;35735;52.226;21.254;2023-03-08T21:47:37;22.42;;;14.63;;
44987;SDS011;35735;52.226;21.254;2023-03-08T21:52:38;34.47;;;19.20;;
44987;SDS011;35735;52.226;21.254;2023-03-08T21:57:38;28.95;;;17.20;;
44987;SDS011;35735;52.226;21.254;2023-03-08T22:02:39;21.12;;;13.80;;
44987;SDS011;35735;52.226;21.254;2023-03-08T22:07:40;18.33;;;12.60;;
44987;SDS011;35735;52.226;21.254;2023-03-08T22:12:41;20.42;;;13.02;;
44987;SDS011;35735;52.226;21.254;2023-03-08T22:17:41;21.27;;;13.07;;
44987;SDS011;35735;52.226;21.254;2023-03-08T22:22:43;24.33;;;14.75;;
44987;SDS011;35735;52.226;21.254;2023-03-08T22:27:43;26.17;;;15.00;;
44987;SDS011;35735;52.226;21.254;2023-03-08T22:32:44;23.80;;;14.45;;
44987;SDS011;35735;52.226;21.254;2023-03-08T22:37:44;24.40;;;14.30;;
44987;SDS011;35735;52.226;21.254;2023-03-08T22:42:45;25.70;;;15.48;;
44987;SDS011;35735;52.226;21.254;2023-03-08T22:47:46;23.10;;;15.35;;
44987;SDS011;35735;52.226;21.254;2023-03-08T22:52:47;26.75;;;14.90;;
44987;SDS011;35735;52.226;21.254;2023-03-08T22:57:47;23.90;;;15.02;;
44987;SDS011;35735;52.226;21.254;2023-03-08T23:02:48;25.12;;;15.75;;
44987;SDS011;35735;52.226;21.254;2023-03-08T23:07:49;24.77;;;14.82;;
44987;SDS011;35735;52.226;21.254;2023-03-08T23:12:49;25.85;;;15.98;;
44987;SDS011;35735;52.226;21.254;2023-03-08T23:17:50;25.80;;;16.00;;
44987;SDS011;35735;52.226;21.254;2023-03-08T23:22:51;27.15;;;16.33;;
44987;SDS011;35735;52.226;21.254;2023-03-08T23:27:51;27.73;;;16.45;;
44987;SDS011;35735;52.226;21.254;2023-03-08T23:32:52;22.65;;;14.23;;
44987;SDS011;35735;52.226;21.254;2023-03-08T23:37:52;19.92;;;13.25;;
44987;SDS011;35735;52.226;21.254;2023-03-08T23:42:53;22.00;;;13.32;;
44987;SDS011;35735;52.226;21.254;2023-03-08T23:47:53;21.15;;;12.90;;
44987;SDS011;35735;52.226;21.254;2023-03-08T23:52:54;21.73;;;13.55;;
44987;SDS011;35735;52.226;21.254;2023-03-08T23:57:54;21.33;;;13.07;;
